createdAt,value
2023-04-20T00:02:18.222Z,18.98
2023-04-20T00:07:41.807Z,18.95
2023-04-20T00:13:03.631Z,18.94
2023-04-20T00:18:25.598Z,18.90
2023-04-20T00:23:47.980Z,18.87
2023-04-20T00:29:09.917Z,18.85
2023-04-20T00:34:31.678Z,18.83
2023-04-20T00:39:53.407Z,18.81
2023-04-20T00:45:15.254Z,18.79
2023-04-20T00:50:38.852Z,18.77
2023-04-20T00:56:00.957Z,18.76
2023-04-20T01:01:22.892Z,18.74
2023-04-20T01:06:44.739Z,18.71
2023-04-20T01:12:07.598Z,18.69
2023-04-20T01:17:29.775Z,18.66
2023-04-20T01:22:54.574Z,18.66
2023-04-20T01:28:16.477Z,18.64
2023-04-20T01:33:38.882Z,18.61
2023-04-20T01:39:01.527Z,18.60
2023-04-20T01:44:23.292Z,18.57
2023-04-20T01:49:45.362Z,18.55
2023-04-20T01:55:07.521Z,18.53
2023-04-20T02:00:29.672Z,18.51
2023-04-20T02:05:51.486Z,18.49
2023-04-20T02:11:13.307Z,18.49
2023-04-20T02:16:35.877Z,18.47
2023-04-20T02:21:57.690Z,18.45
2023-04-20T02:27:19.453Z,18.44
2023-04-20T02:32:41.451Z,18.42
2023-04-20T02:38:03.417Z,18.41
2023-04-20T02:43:25.327Z,18.39
2023-04-20T02:48:47.184Z,18.37
2023-04-20T02:54:08.994Z,18.35
2023-04-20T02:59:30.786Z,18.33
2023-04-20T03:04:52.828Z,18.32
2023-04-20T03:10:14.897Z,18.31
2023-04-20T03:15:36.741Z,18.28
2023-04-20T03:20:58.526Z,18.27
2023-04-20T03:26:20.758Z,18.22
2023-04-20T03:31:42.783Z,18.21
2023-04-20T03:37:04.954Z,18.20
2023-04-20T03:42:26.772Z,18.17
2023-04-20T03:47:48.584Z,18.17
2023-04-20T03:53:10.571Z,18.14
2023-04-20T03:58:32.351Z,18.12
2023-04-20T04:03:54.571Z,18.10
2023-04-20T04:09:16.774Z,18.08
2023-04-20T04:14:38.834Z,18.07
2023-04-20T04:20:00.606Z,18.05
2023-04-20T04:25:23.526Z,18.03
2023-04-20T04:30:45.701Z,18.03
2023-04-20T04:36:07.876Z,18.01
2023-04-20T04:41:29.668Z,17.99
2023-04-20T04:46:51.514Z,17.97
2023-04-20T04:52:13.712Z,17.96
2023-04-20T04:57:36.402Z,17.94
2023-04-20T05:02:58.397Z,17.91
2023-04-20T05:08:21.780Z,17.98
2023-04-20T05:13:43.640Z,18.29
2023-04-20T05:19:05.668Z,18.72
2023-04-20T05:24:27.539Z,19.03
2023-04-20T05:29:49.486Z,19.22
2023-04-20T05:35:11.420Z,19.28
2023-04-20T05:40:37.507Z,19.26
2023-04-20T05:45:59.307Z,19.24
2023-04-20T05:51:22.314Z,19.19
2023-04-20T05:56:44.105Z,19.11
2023-04-20T06:02:06.377Z,19.04
2023-04-20T06:07:28.185Z,18.96
2023-04-20T06:12:50.039Z,18.86
2023-04-20T06:18:11.862Z,18.79
2023-04-20T06:23:33.677Z,18.71
2023-04-20T06:28:55.455Z,18.65
2023-04-20T06:34:17.329Z,18.57
2023-04-20T06:39:39.294Z,18.53
2023-04-20T06:45:01.203Z,18.48
2023-04-20T06:50:22.955Z,18.43
2023-04-20T06:55:44.824Z,18.40
2023-04-20T07:01:06.771Z,18.36
2023-04-20T07:06:28.851Z,18.33
2023-04-20T07:11:51.027Z,18.30
2023-04-20T07:17:12.777Z,18.27
2023-04-20T07:22:40.536Z,18.26
2023-04-20T07:28:02.395Z,18.23
2023-04-20T07:33:24.505Z,18.21
2023-04-20T07:38:46.295Z,18.20
2023-04-20T07:44:08.102Z,18.19
2023-04-20T07:49:30.147Z,18.20
2023-04-20T07:54:54.033Z,18.20
2023-04-20T08:00:16.291Z,18.19
2023-04-20T08:05:39.371Z,18.19
2023-04-20T08:11:01.302Z,18.18
2023-04-20T08:16:24.073Z,18.15
2023-04-20T08:21:45.944Z,18.15
2023-04-20T08:27:09.467Z,18.21
2023-04-20T08:32:31.548Z,18.25
2023-04-20T08:37:53.357Z,18.38
2023-04-20T08:43:15.135Z,18.56
2023-04-20T08:48:38.181Z,18.71
2023-04-20T08:54:06.232Z,18.85
2023-04-20T08:59:28.253Z,18.92
2023-04-20T09:05:00.881Z,18.96
2023-04-20T09:10:24.467Z,18.96
2023-04-20T09:15:46.211Z,18.92
2023-04-20T09:21:10.004Z,18.89
2023-04-20T09:26:33.778Z,18.85
2023-04-20T09:31:55.908Z,18.81
2023-04-20T09:37:18.238Z,18.83
2023-04-20T09:42:42.028Z,18.80
2023-04-20T09:48:06.707Z,18.75
2023-04-20T09:53:28.685Z,18.72
2023-04-20T09:58:51.949Z,18.68
2023-04-20T10:04:15.081Z,18.61
2023-04-20T10:09:38.051Z,18.57
2023-04-20T10:15:01.502Z,18.52
2023-04-20T10:20:25.990Z,18.47
2023-04-20T10:26:01.961Z,18.44
2023-04-20T10:31:25.409Z,18.37
2023-04-20T10:36:47.525Z,18.34
2023-04-20T10:42:09.929Z,18.31
2023-04-20T10:47:34.416Z,18.29
2023-04-20T10:52:56.380Z,18.25
2023-04-20T10:58:25.127Z,18.29
2023-04-20T11:03:53.821Z,18.31
2023-04-20T11:09:25.012Z,18.33
2023-04-20T11:14:55.099Z,18.34
2023-04-20T11:20:18.736Z,18.32
2023-04-20T11:25:50.879Z,18.30
2023-04-20T11:31:19.078Z,18.29
2023-04-20T11:36:41.829Z,18.29
2023-04-20T11:42:04.638Z,18.29
2023-04-20T11:47:26.674Z,18.31
2023-04-20T11:52:49.095Z,18.30
2023-04-20T11:58:11.185Z,18.28
2023-04-20T12:03:33.382Z,18.26
2023-04-20T12:08:56.531Z,18.24
2023-04-20T12:14:18.326Z,18.21
2023-04-20T12:19:40.139Z,18.17
2023-04-20T12:25:02.111Z,18.15
2023-04-20T12:30:24.190Z,18.14
2023-04-20T12:35:46.028Z,18.12
2023-04-20T12:41:08.194Z,18.11
2023-04-20T12:46:30.137Z,18.10
2023-04-20T12:51:52.255Z,18.08
2023-04-20T12:57:14.120Z,18.04
2023-04-20T13:02:36.262Z,18.04
2023-04-20T13:07:58.195Z,18.04
2023-04-20T13:13:20.002Z,18.04
2023-04-20T13:18:41.881Z,18.06
2023-04-20T13:24:03.900Z,18.08
2023-04-20T13:29:26.523Z,18.12
2023-04-20T13:34:48.316Z,18.14
2023-04-20T13:40:10.491Z,18.14
2023-04-20T13:45:32.401Z,18.13
2023-04-20T13:50:54.491Z,18.11
2023-04-20T13:56:16.964Z,18.10
2023-04-20T14:01:39.268Z,18.06
2023-04-20T14:07:01.097Z,18.03
2023-04-20T14:12:22.941Z,18.12
2023-04-20T14:17:44.774Z,18.51
2023-04-20T14:23:09.300Z,19.01
2023-04-20T14:28:33.369Z,19.49
2023-04-20T14:33:55.384Z,19.85
2023-04-20T14:39:20.180Z,20.01
2023-04-20T14:44:42.101Z,20.04
2023-04-20T14:50:04.819Z,19.99
2023-04-20T14:55:26.778Z,19.88
2023-04-20T15:00:52.203Z,19.75
2023-04-20T15:06:14.082Z,19.63
2023-04-20T15:11:36.052Z,19.52
2023-04-20T15:16:57.930Z,19.44
2023-04-20T15:22:19.704Z,19.34
2023-04-20T15:27:41.555Z,19.22
2023-04-20T15:33:04.357Z,19.13
2023-04-20T15:38:27.304Z,19.13
2023-04-20T15:43:49.212Z,19.16
2023-04-20T15:49:11.145Z,19.17
2023-04-20T15:54:33.211Z,19.27
2023-04-20T15:59:55.229Z,19.50
2023-04-20T16:05:17.281Z,19.75
2023-04-20T16:10:39.145Z,19.97
2023-04-20T16:16:01.020Z,20.15
2023-04-20T16:21:23.651Z,20.31
2023-04-20T16:26:46.553Z,20.42
2023-04-20T16:32:08.470Z,20.50
2023-04-20T16:37:33.741Z,20.56
2023-04-20T16:42:55.708Z,20.53
2023-04-20T16:48:17.963Z,20.45
2023-04-20T16:53:39.749Z,20.37
2023-04-20T16:59:01.491Z,20.24
2023-04-20T17:04:23.649Z,20.09
2023-04-20T17:09:45.607Z,19.96
2023-04-20T17:15:08.137Z,19.83
2023-04-20T17:20:29.964Z,19.74
2023-04-20T17:25:51.748Z,19.62
2023-04-20T17:31:13.607Z,19.50
2023-04-20T17:36:35.482Z,19.42
2023-04-20T17:41:59.913Z,19.32
2023-04-20T17:47:21.710Z,19.27
2023-04-20T17:52:43.622Z,19.27
2023-04-20T17:58:05.514Z,19.31
2023-04-20T18:03:28.502Z,19.41
2023-04-20T18:08:50.405Z,19.52
2023-04-20T18:14:12.260Z,19.61
2023-04-20T18:19:37.174Z,19.69
2023-04-20T18:24:59.032Z,19.90
2023-04-20T18:30:20.901Z,20.19
2023-04-20T18:35:43.810Z,20.52
2023-04-20T18:41:05.720Z,20.78
2023-04-20T18:46:27.517Z,20.89
2023-04-20T18:51:49.341Z,20.89
2023-04-20T18:57:11.260Z,20.86
2023-04-20T19:02:33.518Z,20.86
2023-04-20T19:07:55.585Z,20.92
2023-04-20T19:13:18.046Z,21.02
2023-04-20T19:18:40.168Z,21.10
2023-04-20T19:24:02.068Z,21.15
2023-04-20T19:29:23.982Z,21.17
2023-04-20T19:34:45.816Z,21.16
2023-04-20T19:40:08.800Z,21.12
2023-04-20T19:45:30.832Z,21.06
2023-04-20T19:50:52.885Z,20.96
2023-04-20T19:56:14.661Z,20.86
2023-04-20T20:01:36.631Z,20.78
2023-04-20T20:06:59.380Z,20.70
2023-04-20T20:12:21.184Z,20.63
2023-04-20T20:17:45.438Z,20.53
2023-04-20T20:23:07.228Z,20.43
2023-04-20T20:28:29.574Z,20.33
2023-04-20T20:33:52.296Z,20.22
2023-04-20T20:39:14.552Z,20.12
2023-04-20T20:44:39.147Z,20.02
2023-04-20T20:50:00.977Z,19.93
2023-04-20T20:55:23.188Z,19.83
2023-04-20T21:00:47.258Z,19.76
2023-04-20T21:06:09.159Z,19.65
2023-04-20T21:11:31.042Z,19.56
2023-04-20T21:16:52.884Z,19.50
2023-04-20T21:22:14.762Z,19.45
2023-04-20T21:27:36.837Z,19.37
2023-04-20T21:32:58.677Z,19.32
2023-04-20T21:38:20.652Z,19.28
2023-04-20T21:43:43.543Z,19.22
2023-04-20T21:49:05.641Z,19.17
2023-04-20T21:54:27.539Z,19.13
2023-04-20T21:59:49.324Z,19.08
2023-04-20T22:05:11.771Z,19.05
2023-04-20T22:10:33.770Z,19.01
2023-04-20T22:15:55.902Z,18.97
2023-04-20T22:21:17.746Z,18.92
2023-04-20T22:26:39.599Z,18.90
2023-04-20T22:32:01.441Z,18.87
2023-04-20T22:37:23.272Z,18.82
2023-04-20T22:42:45.464Z,18.79
2023-04-20T22:48:07.924Z,18.76
2023-04-20T22:53:30.425Z,18.74
2023-04-20T22:58:52.320Z,18.71
2023-04-20T23:04:14.374Z,18.69
2023-04-20T23:09:40.140Z,18.66
2023-04-20T23:15:02.134Z,18.61
2023-04-20T23:20:24.381Z,18.59
2023-04-20T23:25:46.243Z,18.57
2023-04-20T23:31:08.058Z,18.54
2023-04-20T23:36:29.919Z,18.52
2023-04-20T23:41:51.780Z,18.50
2023-04-20T23:47:14.792Z,18.48
2023-04-20T23:52:36.677Z,18.47
2023-04-20T23:58:01.067Z,18.44
